sensor_id;sensor_type;location;lat;lon;timestamp;pressure;altitude;pressure_sealevel;temperature;humidity
68656;BME280;55638;51.122;13.606;2023-03-03T00:00:06;100747.97;;;-1.44;59.56
68656;BME280;55638;51.122;13.606;2023-03-03T00:01:44;100745.25;;;-1.41;59.68
68656;BME280;55638;51.122;13.606;2023-03-03T00:03:18;100746.91;;;-1.37;59.66
68656;BME280;55638;51.122;13.606;2023-03-03T00:04:51;100738.88;;;-1.33;59.57
68656;BME280;55638;51.122;13.606;2023-03-03T00:06:23;100740.53;;;-1.29;59.48
68656;BME280;55638;51.122;13.606;2023-03-03T00:07:55;100745.75;;;-1.26;59.52
68656;BME280;55638;51.122;13.606;2023-03-03T00:09:27;100742.09;;;-1.21;59.52
68656;BME280;55638;51.122;13.606;2023-03-03T00:10:59;100745.53;;;-1.18;59.52
68656;BME280;55638;51.122;13.606;2023-03-03T00:12:32;100748.09;;;-1.15;59.67
68656;BME280;55638;51.122;13.606;2023-03-03T00:14:17;100747.25;;;-1.15;60.02
68656;BME280;55638;51.122;13.606;2023-03-03T00:15:53;100747.97;;;-1.10;59.70
68656;BME280;55638;51.122;13.606;2023-03-03T00:17:29;100752.31;;;-1.08;59.80
68656;BME280;55638;51.122;13.606;2023-03-03T00:19:02;100752.22;;;-1.03;59.51
68656;BME280;55638;51.122;13.606;2023-03-03T00:20:37;100748.66;;;-1.02;59.72
68656;BME280;55638;51.122;13.606;2023-03-03T00:22:18;100745.09;;;-1.01;59.80
68656;BME280;55638;51.122;13.606;2023-03-03T00:23:54;100750.28;;;-0.98;59.23
68656;BME280;55638;51.122;13.606;2023-03-03T00:25:30;100756.44;;;-0.96;59.55
68656;BME280;55638;51.122;13.606;2023-03-03T00:27:22;100756.44;;;-0.96;59.69
68656;BME280;55638;51.122;13.606;2023-03-03T00:28:57;100756.28;;;-0.91;59.15
68656;BME280;55638;51.122;13.606;2023-03-03T00:30:29;100762.44;;;-0.91;59.20
68656;BME280;55638;51.122;13.606;2023-03-03T00:34:18;100765.09;;;-0.91;59.53
68656;BME280;55638;51.122;13.606;2023-03-03T00:35:55;100764.22;;;-0.90;58.89
68656;BME280;55638;51.122;13.606;2023-03-03T00:37:32;100756.28;;;-0.91;59.37
68656;BME280;55638;51.122;13.606;2023-03-03T00:39:30;100757.22;;;-0.92;59.26
68656;BME280;55638;51.122;13.606;2023-03-03T00:41:23;100756.28;;;-0.91;59.31
68656;BME280;55638;51.122;13.606;2023-03-03T00:42:57;100754.56;;;-0.92;58.99
68656;BME280;55638;51.122;13.606;2023-03-03T00:44:40;100762.53;;;-0.94;59.29
68656;BME280;55638;51.122;13.606;2023-03-03T00:46:17;100773.13;;;-0.94;59.18
68656;BME280;55638;51.122;13.606;2023-03-03T00:47:50;100763.44;;;-0.95;58.92
68656;BME280;55638;51.122;13.606;2023-03-03T00:49:25;100767.94;;;-0.97;59.22
68656;BME280;55638;51.122;13.606;2023-03-03T00:50:59;100775.88;;;-0.97;59.08
68656;BME280;55638;51.122;13.606;2023-03-03T00:52:38;100768.88;;;-0.99;59.40
68656;BME280;55638;51.122;13.606;2023-03-03T00:54:10;100767.94;;;-0.98;59.07
68656;BME280;55638;51.122;13.606;2023-03-03T00:55:42;100760.97;;;-1.01;58.85
68656;BME280;55638;51.122;13.606;2023-03-03T00:57:14;100764.53;;;-1.02;59.03
68656;BME280;55638;51.122;13.606;2023-03-03T00:58:47;100767.25;;;-1.05;58.96
68656;BME280;55638;51.122;13.606;2023-03-03T01:00:22;100776.09;;;-1.06;58.96
68656;BME280;55638;51.122;13.606;2023-03-03T01:01:53;100769.06;;;-1.07;58.89
68656;BME280;55638;51.122;13.606;2023-03-03T01:03:25;100766.50;;;-1.10;59.00
68656;BME280;55638;51.122;13.606;2023-03-03T01:04:58;100771.78;;;-1.10;58.67
68656;BME280;55638;51.122;13.606;2023-03-03T01:06:30;100774.53;;;-1.13;58.56
68656;BME280;55638;51.122;13.606;2023-03-03T01:08:03;100766.63;;;-1.15;58.72
68656;BME280;55638;51.122;13.606;2023-03-03T01:09:35;100772.00;;;-1.18;58.83
68656;BME280;55638;51.122;13.606;2023-03-03T01:11:20;100770.34;;;-1.23;59.41
68656;BME280;55638;51.122;13.606;2023-03-03T01:12:53;100769.50;;;-1.24;58.87
68656;BME280;55638;51.122;13.606;2023-03-03T01:14:26;100774.84;;;-1.26;58.99
68656;BME280;55638;51.122;13.606;2023-03-03T01:15:59;100776.63;;;-1.28;59.23
68656;BME280;55638;51.122;13.606;2023-03-03T01:17:31;100772.28;;;-1.30;59.12
68656;BME280;55638;51.122;13.606;2023-03-03T01:19:04;100772.34;;;-1.32;59.22
68656;BME280;55638;51.122;13.606;2023-03-03T01:20:37;100768.84;;;-1.34;59.04
68656;BME280;55638;51.122;13.606;2023-03-03T01:22:09;100775.00;;;-1.33;58.90
68656;BME280;55638;51.122;13.606;2023-03-03T01:23:41;100773.34;;;-1.36;59.17
68656;BME280;55638;51.122;13.606;2023-03-03T01:25:13;100771.56;;;-1.35;59.17
68656;BME280;55638;51.122;13.606;2023-03-03T01:26:45;100768.13;;;-1.39;59.37
68656;BME280;55638;51.122;13.606;2023-03-03T01:28:17;100773.34;;;-1.37;59.41
68656;BME280;55638;51.122;13.606;2023-03-03T01:29:49;100767.25;;;-1.39;59.43
68656;BME280;55638;51.122;13.606;2023-03-03T01:31:21;100765.47;;;-1.39;59.23
68656;BME280;55638;51.122;13.606;2023-03-03T01:32:53;100765.50;;;-1.40;59.44
68656;BME280;55638;51.122;13.606;2023-03-03T01:34:25;100772.56;;;-1.41;59.22
68656;BME280;55638;51.122;13.606;2023-03-03T01:35:56;100768.16;;;-1.40;59.36
68656;BME280;55638;51.122;13.606;2023-03-03T01:37:28;100767.28;;;-1.41;59.41
68656;BME280;55638;51.122;13.606;2023-03-03T01:39:00;100775.22;;;-1.41;59.17
68656;BME280;55638;51.122;13.606;2023-03-03T01:40:32;100765.56;;;-1.43;59.35
68656;BME280;55638;51.122;13.606;2023-03-03T01:42:03;100769.06;;;-1.43;59.36
68656;BME280;55638;51.122;13.606;2023-03-03T01:43:46;100772.69;;;-1.45;59.53
68656;BME280;55638;51.122;13.606;2023-03-03T01:45:25;100757.69;;;-1.45;59.79
68656;BME280;55638;51.122;13.606;2023-03-03T01:47:18;100757.72;;;-1.46;59.75
68656;BME280;55638;51.122;13.606;2023-03-03T01:48:55;100755.06;;;-1.45;59.66
68656;BME280;55638;51.122;13.606;2023-03-03T01:51:00;100750.69;;;-1.47;59.79
68656;BME280;55638;51.122;13.606;2023-03-03T01:52:43;100749.75;;;-1.45;59.34
68656;BME280;55638;51.122;13.606;2023-03-03T01:54:20;100753.28;;;-1.46;59.29
68656;BME280;55638;51.122;13.606;2023-03-03T01:55:54;100751.56;;;-1.47;59.42
68656;BME280;55638;51.122;13.606;2023-03-03T01:57:31;100749.84;;;-1.48;59.50
68656;BME280;55638;51.122;13.606;2023-03-03T01:59:07;100748.13;;;-1.51;59.38
68656;BME280;55638;51.122;13.606;2023-03-03T02:00:43;100745.47;;;-1.51;59.60
68656;BME280;55638;51.122;13.606;2023-03-03T02:02:18;100743.75;;;-1.52;59.50
68656;BME280;55638;51.122;13.606;2023-03-03T02:03:50;100749.06;;;-1.53;59.50
68656;BME280;55638;51.122;13.606;2023-03-03T02:05:24;100750.84;;;-1.54;59.57
68656;BME280;55638;51.122;13.606;2023-03-03T02:06:59;100744.69;;;-1.54;59.87
68656;BME280;55638;51.122;13.606;2023-03-03T02:08:53;100744.75;;;-1.57;60.16
68656;BME280;55638;51.122;13.606;2023-03-03T02:10:30;100752.63;;;-1.54;59.87
68656;BME280;55638;51.122;13.606;2023-03-03T02:12:06;100764.94;;;-1.53;59.79
68656;BME280;55638;51.122;13.606;2023-03-03T02:13:39;100752.66;;;-1.56;59.68
68656;BME280;55638;51.122;13.606;2023-03-03T02:15:32;100750.97;;;-1.58;60.49
68656;BME280;55638;51.122;13.606;2023-03-03T02:17:07;100757.06;;;-1.56;59.56
68656;BME280;55638;51.122;13.606;2023-03-03T02:18:39;100762.34;;;-1.56;59.64
68656;BME280;55638;51.122;13.606;2023-03-03T02:21:58;100752.69;;;-1.57;59.60
68656;BME280;55638;51.122;13.606;2023-03-03T02:24:02;100753.69;;;-1.61;59.90
68656;BME280;55638;51.122;13.606;2023-03-03T02:27:30;100747.53;;;-1.62;59.54
68656;BME280;55638;51.122;13.606;2023-03-03T02:29:02;100751.06;;;-1.63;59.46
68656;BME280;55638;51.122;13.606;2023-03-03T02:30:38;100746.72;;;-1.65;59.78
68656;BME280;55638;51.122;13.606;2023-03-03T02:32:12;100751.13;;;-1.66;59.93
68656;BME280;55638;51.122;13.606;2023-03-03T02:33:47;100753.81;;;-1.67;59.99
68656;BME280;55638;51.122;13.606;2023-03-03T02:35:26;100750.28;;;-1.66;60.18
68656;BME280;55638;51.122;13.606;2023-03-03T02:36:58;100755.56;;;-1.66;59.84
68656;BME280;55638;51.122;13.606;2023-03-03T02:39:10;100755.69;;;-1.71;60.23
68656;BME280;55638;51.122;13.606;2023-03-03T02:42:28;100754.75;;;-1.68;59.94
68656;BME280;55638;51.122;13.606;2023-03-03T02:44:11;100756.50;;;-1.69;59.97
68656;BME280;55638;51.122;13.606;2023-03-03T02:45:44;100748.53;;;-1.67;59.70
68656;BME280;55638;51.122;13.606;2023-03-03T02:47:15;100753.81;;;-1.67;59.79
68656;BME280;55638;51.122;13.606;2023-03-03T02:48:47;100754.75;;;-1.68;59.99
68656;BME280;55638;51.122;13.606;2023-03-03T02:50:19;100752.91;;;-1.66;59.79
68656;BME280;55638;51.122;13.606;2023-03-03T02:51:52;100750.31;;;-1.68;60.08
68656;BME280;55638;51.122;13.606;2023-03-03T02:53:23;100749.41;;;-1.67;59.82
68656;BME280;55638;51.122;13.606;2023-03-03T02:54:56;100754.69;;;-1.67;59.79
68656;BME280;55638;51.122;13.606;2023-03-03T02:56:28;100752.97;;;-1.68;59.83
68656;BME280;55638;51.122;13.606;2023-03-03T02:58:00;100757.38;;;-1.68;60.00
68656;BME280;55638;51.122;13.606;2023-03-03T02:59:33;100752.13;;;-1.70;60.03
68656;BME280;55638;51.122;13.606;2023-03-03T03:01:12;100754.75;;;-1.70;59.76
68656;BME280;55638;51.122;13.606;2023-03-03T03:02:44;100762.75;;;-1.72;59.69
68656;BME280;55638;51.122;13.606;2023-03-03T03:04:21;100765.38;;;-1.72;60.08
68656;BME280;55638;51.122;13.606;2023-03-03T03:05:54;100760.13;;;-1.73;59.96
68656;BME280;55638;51.122;13.606;2023-03-03T03:07:29;100756.63;;;-1.75;60.07
68656;BME280;55638;51.122;13.606;2023-03-03T03:09:01;100759.31;;;-1.77;60.42
68656;BME280;55638;51.122;13.606;2023-03-03T03:10:33;100753.19;;;-1.77;60.17
68656;BME280;55638;51.122;13.606;2023-03-03T03:12:05;100761.97;;;-1.77;60.26
68656;BME280;55638;51.122;13.606;2023-03-03T03:13:38;100757.56;;;-1.76;59.85
68656;BME280;55638;51.122;13.606;2023-03-03T03:15:11;100761.06;;;-1.76;60.07
68656;BME280;55638;51.122;13.606;2023-03-03T03:16:42;100765.53;;;-1.78;59.87
68656;BME280;55638;51.122;13.606;2023-03-03T03:18:15;100769.91;;;-1.77;60.11
68656;BME280;55638;51.122;13.606;2023-03-03T03:19:47;100760.25;;;-1.78;59.97
68656;BME280;55638;51.122;13.606;2023-03-03T03:21:19;100756.69;;;-1.77;59.95
68656;BME280;55638;51.122;13.606;2023-03-03T03:22:51;100759.38;;;-1.78;60.04
68656;BME280;55638;51.122;13.606;2023-03-03T03:24:23;100762.91;;;-1.79;59.76
68656;BME280;55638;51.122;13.606;2023-03-03T03:26:01;100763.81;;;-1.80;59.92
68656;BME280;55638;51.122;13.606;2023-03-03T03:27:33;100758.56;;;-1.82;60.07
68656;BME280;55638;51.122;13.606;2023-03-03T03:29:05;100759.47;;;-1.83;60.17
68656;BME280;55638;51.122;13.606;2023-03-03T03:30:38;100755.09;;;-1.84;60.25
68656;BME280;55638;51.122;13.606;2023-03-03T03:32:10;100758.59;;;-1.83;60.28
68656;BME280;55638;51.122;13.606;2023-03-03T03:33:43;100756.88;;;-1.84;60.18
68656;BME280;55638;51.122;13.606;2023-03-03T03:35:16;100756.88;;;-1.84;60.44
68656;BME280;55638;51.122;13.606;2023-03-03T03:36:48;100748.09;;;-1.85;60.38
68656;BME280;55638;51.122;13.606;2023-03-03T03:38:23;100755.97;;;-1.83;60.62
68656;BME280;55638;51.122;13.606;2023-03-03T03:39:55;100747.97;;;-1.82;60.74
68656;BME280;55638;51.122;13.606;2023-03-03T03:41:27;100738.31;;;-1.81;60.52
68656;BME280;55638;51.122;13.606;2023-03-03T03:42:59;100748.81;;;-1.80;60.63
68656;BME280;55638;51.122;13.606;2023-03-03T03:44:31;100749.69;;;-1.79;60.59
68656;BME280;55638;51.122;13.606;2023-03-03T03:46:02;100761.13;;;-1.79;60.68
68656;BME280;55638;51.122;13.606;2023-03-03T03:47:34;100762.88;;;-1.78;60.66
68656;BME280;55638;51.122;13.606;2023-03-03T03:49:06;100764.66;;;-1.78;60.58
68656;BME280;55638;51.122;13.606;2023-03-03T03:50:38;100762.88;;;-1.78;60.73
68656;BME280;55638;51.122;13.606;2023-03-03T03:52:10;100770.75;;;-1.76;60.57
68656;BME280;55638;51.122;13.606;2023-03-03T03:53:42;100764.63;;;-1.77;60.61
68656;BME280;55638;51.122;13.606;2023-03-03T03:55:14;100760.19;;;-1.76;60.74
68656;BME280;55638;51.122;13.606;2023-03-03T03:56:46;100765.47;;;-1.75;60.87
68656;BME280;55638;51.122;13.606;2023-03-03T03:58:19;100769.84;;;-1.75;60.75
68656;BME280;55638;51.122;13.606;2023-03-03T03:59:57;100776.84;;;-1.73;60.86
68656;BME280;55638;51.122;13.606;2023-03-03T04:01:29;100778.59;;;-1.72;60.58
68656;BME280;55638;51.122;13.606;2023-03-03T04:03:01;100779.47;;;-1.71;60.57
68656;BME280;55638;51.122;13.606;2023-03-03T04:04:33;100774.13;;;-1.68;60.43
68656;BME280;55638;51.122;13.606;2023-03-03T04:06:06;100778.53;;;-1.68;60.70
68656;BME280;55638;51.122;13.606;2023-03-03T04:07:38;100780.25;;;-1.67;60.74
68656;BME280;55638;51.122;13.606;2023-03-03T04:09:11;100778.53;;;-1.68;60.68
68656;BME280;55638;51.122;13.606;2023-03-03T04:10:43;100774.97;;;-1.67;60.67
68656;BME280;55638;51.122;13.606;2023-03-03T04:12:15;100788.19;;;-1.67;60.67
68656;BME280;55638;51.122;13.606;2023-03-03T04:13:47;100779.41;;;-1.68;60.61
68656;BME280;55638;51.122;13.606;2023-03-03T04:15:19;100778.47;;;-1.67;60.62
68656;BME280;55638;51.122;13.606;2023-03-03T04:16:51;100779.41;;;-1.68;60.52
68656;BME280;55638;51.122;13.606;2023-03-03T04:18:24;100775.88;;;-1.68;60.42
68656;BME280;55638;51.122;13.606;2023-03-03T04:19:56;100784.69;;;-1.68;60.60
68656;BME280;55638;51.122;13.606;2023-03-03T04:21:28;100787.31;;;-1.68;60.69
68656;BME280;55638;51.122;13.606;2023-03-03T04:23:02;100782.03;;;-1.68;60.55
68656;BME280;55638;51.122;13.606;2023-03-03T04:24:35;100782.94;;;-1.69;60.53
68656;BME280;55638;51.122;13.606;2023-03-03T04:26:08;100784.69;;;-1.68;60.56
68656;BME280;55638;51.122;13.606;2023-03-03T04:27:42;100788.25;;;-1.70;60.62
68656;BME280;55638;51.122;13.606;2023-03-03T04:29:14;100792.63;;;-1.69;60.51
68656;BME280;55638;51.122;13.606;2023-03-03T04:30:47;100790.91;;;-1.70;60.83
68656;BME280;55638;51.122;13.606;2023-03-03T04:32:20;100786.47;;;-1.70;60.66
68656;BME280;55638;51.122;13.606;2023-03-03T04:33:52;100790.91;;;-1.70;60.74
68656;BME280;55638;51.122;13.606;2023-03-03T04:35:26;100792.63;;;-1.69;60.86
68656;BME280;55638;51.122;13.606;2023-03-03T04:36:58;100804.06;;;-1.69;60.86
68656;BME280;55638;51.122;13.606;2023-03-03T04:38:30;100792.63;;;-1.69;60.79
68656;BME280;55638;51.122;13.606;2023-03-03T04:40:04;100799.69;;;-1.68;61.01
68656;BME280;55638;51.122;13.606;2023-03-03T04:41:36;100794.41;;;-1.68;60.76
68656;BME280;55638;51.122;13.606;2023-03-03T04:43:09;100802.34;;;-1.70;60.92
68656;BME280;55638;51.122;13.606;2023-03-03T04:44:41;100798.78;;;-1.69;60.92
68656;BME280;55638;51.122;13.606;2023-03-03T04:46:14;100797.91;;;-1.68;60.82
68656;BME280;55638;51.122;13.606;2023-03-03T04:47:46;100790.00;;;-1.69;60.71
68656;BME280;55638;51.122;13.606;2023-03-03T04:49:18;100799.69;;;-1.68;60.89
68656;BME280;55638;51.122;13.606;2023-03-03T04:50:50;100796.13;;;-1.69;60.89
68656;BME280;55638;51.122;13.606;2023-03-03T04:52:23;100786.47;;;-1.68;60.92
68656;BME280;55638;51.122;13.606;2023-03-03T04:53:55;100795.25;;;-1.68;60.90
68656;BME280;55638;51.122;13.606;2023-03-03T04:55:27;100792.56;;;-1.66;60.79
68656;BME280;55638;51.122;13.606;2023-03-03T04:56:59;100789.06;;;-1.67;60.97
68656;BME280;55638;51.122;13.606;2023-03-03T04:58:31;100797.00;;;-1.67;61.07
68656;BME280;55638;51.122;13.606;2023-03-03T05:00:03;100797.00;;;-1.67;61.10
68656;BME280;55638;51.122;13.606;2023-03-03T05:01:35;100793.41;;;-1.64;61.22
68656;BME280;55638;51.122;13.606;2023-03-03T05:03:10;100796.06;;;-1.66;61.34
68656;BME280;55638;51.122;13.606;2023-03-03T05:04:43;100802.22;;;-1.64;60.98
68656;BME280;55638;51.122;13.606;2023-03-03T05:06:15;100796.91;;;-1.64;61.15
68656;BME280;55638;51.122;13.606;2023-03-03T05:07:49;100793.34;;;-1.63;61.35
68656;BME280;55638;51.122;13.606;2023-03-03T05:09:21;100800.41;;;-1.62;61.19
68656;BME280;55638;51.122;13.606;2023-03-03T05:10:53;100796.84;;;-1.61;61.15
68656;BME280;55638;51.122;13.606;2023-03-03T05:12:25;100800.34;;;-1.60;61.20
68656;BME280;55638;51.122;13.606;2023-03-03T05:13:57;100800.34;;;-1.60;61.37
68656;BME280;55638;51.122;13.606;2023-03-03T05:15:29;100796.78;;;-1.59;61.32
68656;BME280;55638;51.122;13.606;2023-03-03T05:17:02;100790.63;;;-1.58;61.31
68656;BME280;55638;51.122;13.606;2023-03-03T05:18:35;100778.22;;;-1.56;61.32
68656;BME280;55638;51.122;13.606;2023-03-03T05:20:07;100780.84;;;-1.55;61.31
68656;BME280;55638;51.122;13.606;2023-03-03T05:21:40;100790.50;;;-1.54;61.31
68656;BME280;55638;51.122;13.606;2023-03-03T05:23:13;100793.13;;;-1.52;61.49
68656;BME280;55638;51.122;13.606;2023-03-03T05:24:45;100794.84;;;-1.51;61.31
68656;BME280;55638;51.122;13.606;2023-03-03T05:26:19;100798.38;;;-1.51;61.32
68656;BME280;55638;51.122;13.606;2023-03-03T05:27:51;100808.91;;;-1.49;61.25
68656;BME280;55638;51.122;13.606;2023-03-03T05:29:23;100801.00;;;-1.49;61.43
68656;BME280;55638;51.122;13.606;2023-03-03T05:30:55;100786.00;;;-1.49;61.34
68656;BME280;55638;51.122;13.606;2023-03-03T05:32:26;100782.44;;;-1.47;61.22
68656;BME280;55638;51.122;13.606;2023-03-03T05:33:59;100785.94;;;-1.47;61.51
68656;BME280;55638;51.122;13.606;2023-03-03T05:35:31;100785.03;;;-1.46;61.44
68656;BME280;55638;51.122;13.606;2023-03-03T05:37:03;100796.44;;;-1.44;61.60
68656;BME280;55638;51.122;13.606;2023-03-03T05:38:37;100807.00;;;-1.42;61.57
68656;BME280;55638;51.122;13.606;2023-03-03T05:40:09;100807.88;;;-1.42;61.27
68656;BME280;55638;51.122;13.606;2023-03-03T05:41:41;100809.59;;;-1.41;61.45
68656;BME280;55638;51.122;13.606;2023-03-03T05:43:13;100811.31;;;-1.40;61.33
68656;BME280;55638;51.122;13.606;2023-03-03T05:44:45;100811.31;;;-1.40;61.41
68656;BME280;55638;51.122;13.606;2023-03-03T05:46:16;100806.00;;;-1.38;61.29
68656;BME280;55638;51.122;13.606;2023-03-03T05:47:51;100802.50;;;-1.39;61.46
68656;BME280;55638;51.122;13.606;2023-03-03T05:49:25;100806.00;;;-1.38;61.44
68656;BME280;55638;51.122;13.606;2023-03-03T05:50:58;100807.75;;;-1.37;61.43
68656;BME280;55638;51.122;13.606;2023-03-03T05:52:30;100798.03;;;-1.37;61.22
68656;BME280;55638;51.122;13.606;2023-03-03T05:54:02;100804.19;;;-1.36;61.37
68656;BME280;55638;51.122;13.606;2023-03-03T05:55:33;100805.09;;;-1.37;61.24
68656;BME280;55638;51.122;13.606;2023-03-03T05:57:05;100802.44;;;-1.36;61.33
68656;BME280;55638;51.122;13.606;2023-03-03T05:58:37;100809.44;;;-1.35;61.37
68656;BME280;55638;51.122;13.606;2023-03-03T06:00:09;100806.81;;;-1.36;61.56
68656;BME280;55638;51.122;13.606;2023-03-03T06:01:44;100801.50;;;-1.35;61.37
68656;BME280;55638;51.122;13.606;2023-03-03T06:03:16;100807.66;;;-1.34;61.47
68656;BME280;55638;51.122;13.606;2023-03-03T06:04:48;100805.88;;;-1.34;61.47
68656;BME280;55638;51.122;13.606;2023-03-03T06:06:20;100802.34;;;-1.33;61.42
68656;BME280;55638;51.122;13.606;2023-03-03T06:07:52;100799.72;;;-1.33;61.39
68656;BME280;55638;51.122;13.606;2023-03-03T06:09:24;100803.22;;;-1.32;61.29
68656;BME280;55638;51.122;13.606;2023-03-03T06:10:57;100797.00;;;-1.31;61.30
68656;BME280;55638;51.122;13.606;2023-03-03T06:12:29;100795.28;;;-1.32;61.40
68656;BME280;55638;51.122;13.606;2023-03-03T06:14:00;100796.16;;;-1.32;61.30
68656;BME280;55638;51.122;13.606;2023-03-03T06:15:32;100800.53;;;-1.31;61.24
68656;BME280;55638;51.122;13.606;2023-03-03T06:17:04;100797.88;;;-1.31;61.22
68656;BME280;55638;51.122;13.606;2023-03-03T06:18:36;100804.94;;;-1.31;61.58
68656;BME280;55638;51.122;13.606;2023-03-03T06:20:09;100801.44;;;-1.32;61.51
68656;BME280;55638;51.122;13.606;2023-03-03T06:21:41;100793.50;;;-1.32;61.55
68656;BME280;55638;51.122;13.606;2023-03-03T06:23:13;100801.38;;;-1.30;61.54
68656;BME280;55638;51.122;13.606;2023-03-03T06:24:44;100808.47;;;-1.31;61.66
68656;BME280;55638;51.122;13.606;2023-03-03T06:26:16;100803.16;;;-1.31;61.51
68656;BME280;55638;51.122;13.606;2023-03-03T06:27:48;100812.81;;;-1.30;61.26
68656;BME280;55638;51.122;13.606;2023-03-03T06:29:20;100819.88;;;-1.29;61.52
68656;BME280;55638;51.122;13.606;2023-03-03T06:30:53;100816.38;;;-1.31;61.34
68656;BME280;55638;51.122;13.606;2023-03-03T06:32:25;100826.06;;;-1.30;61.45
68656;BME280;55638;51.122;13.606;2023-03-03T06:33:57;100834.00;;;-1.30;61.36
68656;BME280;55638;51.122;13.606;2023-03-03T06:35:29;100837.53;;;-1.29;61.31
68656;BME280;55638;51.122;13.606;2023-03-03T06:37:00;100842.84;;;-1.31;61.55
68656;BME280;55638;51.122;13.606;2023-03-03T06:38:32;100843.75;;;-1.32;61.41
68656;BME280;55638;51.122;13.606;2023-03-03T06:40:05;100843.78;;;-1.33;61.31
68656;BME280;55638;51.122;13.606;2023-03-03T06:41:37;100841.19;;;-1.35;61.41
68656;BME280;55638;51.122;13.606;2023-03-03T06:43:08;100841.19;;;-1.35;61.46
68656;BME280;55638;51.122;13.606;2023-03-03T06:44:40;100844.75;;;-1.36;61.51
68656;BME280;55638;51.122;13.606;2023-03-03T06:46:12;100835.09;;;-1.38;61.46
68656;BME280;55638;51.122;13.606;2023-03-03T06:47:44;100840.34;;;-1.37;61.71
68656;BME280;55638;51.122;13.606;2023-03-03T06:49:16;100839.53;;;-1.39;61.57
68656;BME280;55638;51.122;13.606;2023-03-03T06:50:48;100838.66;;;-1.39;61.72
68656;BME280;55638;51.122;13.606;2023-03-03T06:52:24;100829.84;;;-1.40;61.91
68656;BME280;55638;51.122;13.606;2023-03-03T06:53:57;100835.13;;;-1.40;61.92
68656;BME280;55638;51.122;13.606;2023-03-03T06:55:29;100830.69;;;-1.38;61.85
68656;BME280;55638;51.122;13.606;2023-03-03T06:57:09;100834.25;;;-1.39;61.86
68656;BME280;55638;51.122;13.606;2023-03-03T06:58:45;100832.41;;;-1.37;61.76
68656;BME280;55638;51.122;13.606;2023-03-03T07:00:22;100837.69;;;-1.37;61.78
68656;BME280;55638;51.122;13.606;2023-03-03T07:01:55;100847.38;;;-1.36;61.69
68656;BME280;55638;51.122;13.606;2023-03-03T07:03:32;100858.00;;;-1.37;61.85
68656;BME280;55638;51.122;13.606;2023-03-03T07:05:10;100854.44;;;-1.36;61.84
68656;BME280;55638;51.122;13.606;2023-03-03T07:06:44;100852.63;;;-1.34;61.46
68656;BME280;55638;51.122;13.606;2023-03-03T07:08:19;100849.13;;;-1.35;61.71
68656;BME280;55638;51.122;13.606;2023-03-03T07:09:56;100847.34;;;-1.34;61.86
68656;BME280;55638;51.122;13.606;2023-03-03T07:11:29;100851.75;;;-1.35;61.64
68656;BME280;55638;51.122;13.606;2023-03-03T07:13:21;100845.63;;;-1.37;61.81
68656;BME280;55638;51.122;13.606;2023-03-03T07:15:14;100850.06;;;-1.37;61.93
68656;BME280;55638;51.122;13.606;2023-03-03T07:16:50;100842.09;;;-1.36;62.11
68656;BME280;55638;51.122;13.606;2023-03-03T07:20:22;100857.91;;;-1.33;62.03
68656;BME280;55638;51.122;13.606;2023-03-03T07:21:54;100858.78;;;-1.34;62.21
68656;BME280;55638;51.122;13.606;2023-03-03T07:23:30;100859.63;;;-1.32;61.83
68656;BME280;55638;51.122;13.606;2023-03-03T07:25:28;100862.28;;;-1.32;62.19
68656;BME280;55638;51.122;13.606;2023-03-03T07:27:22;100861.44;;;-1.34;62.16
68656;BME280;55638;51.122;13.606;2023-03-03T07:28:57;100864.00;;;-1.31;61.77
68656;BME280;55638;51.122;13.606;2023-03-03T07:30:30;100869.28;;;-1.29;61.67
68656;BME280;55638;51.122;13.606;2023-03-03T07:32:51;100880.75;;;-1.30;61.94
68656;BME280;55638;51.122;13.606;2023-03-03T07:34:22;100883.44;;;-1.32;61.86
68656;BME280;55638;51.122;13.606;2023-03-03T07:35:56;100888.66;;;-1.30;61.85
68656;BME280;55638;51.122;13.606;2023-03-03T07:37:36;100890.44;;;-1.31;61.96
68656;BME280;55638;51.122;13.606;2023-03-03T07:39:27;100890.50;;;-1.32;61.91
68656;BME280;55638;51.122;13.606;2023-03-03T07:41:04;100887.81;;;-1.31;61.82
68656;BME280;55638;51.122;13.606;2023-03-03T07:42:40;100883.44;;;-1.33;62.22
68656;BME280;55638;51.122;13.606;2023-03-03T07:44:31;100892.28;;;-1.33;62.07
68656;BME280;55638;51.122;13.606;2023-03-03T07:48:25;100890.53;;;-1.34;62.35
68656;BME280;55638;51.122;13.606;2023-03-03T07:50:27;100890.53;;;-1.34;62.28
68656;BME280;55638;51.122;13.606;2023-03-03T07:51:59;100895.75;;;-1.31;62.14
68656;BME280;55638;51.122;13.606;2023-03-03T07:53:33;100889.59;;;-1.31;62.44
68656;BME280;55638;51.122;13.606;2023-03-03T07:55:30;100886.09;;;-1.33;62.51
68656;BME280;55638;51.122;13.606;2023-03-03T07:58:47;100883.38;;;-1.29;62.38
68656;BME280;55638;51.122;13.606;2023-03-03T08:01:53;100889.47;;;-1.27;62.47
68656;BME280;55638;51.122;13.606;2023-03-03T08:03:26;100891.22;;;-1.26;62.02
68656;BME280;55638;51.122;13.606;2023-03-03T08:04:58;100882.34;;;-1.23;62.27
68656;BME280;55638;51.122;13.606;2023-03-03T08:09:58;100878.75;;;-1.20;62.42
68656;BME280;55638;51.122;13.606;2023-03-03T08:11:30;100879.53;;;-1.15;62.30
68656;BME280;55638;51.122;13.606;2023-03-03T08:13:14;100884.81;;;-1.15;62.45
68656;BME280;55638;51.122;13.606;2023-03-03T08:14:50;100882.09;;;-1.12;62.46
68656;BME280;55638;51.122;13.606;2023-03-03T08:16:36;100882.09;;;-1.12;62.65
68656;BME280;55638;51.122;13.606;2023-03-03T08:22:08;100867.78;;;-1.04;62.51
68656;BME280;55638;51.122;13.606;2023-03-03T08:23:42;100882.66;;;-0.99;62.54
68656;BME280;55638;51.122;13.606;2023-03-03T08:25:15;100885.25;;;-0.98;62.45
68656;BME280;55638;51.122;13.606;2023-03-03T08:26:46;100880.84;;;-0.97;62.45
68656;BME280;55638;51.122;13.606;2023-03-03T08:28:19;100879.03;;;-0.95;62.42
68656;BME280;55638;51.122;13.606;2023-03-03T08:29:51;100883.31;;;-0.91;62.37
68656;BME280;55638;51.122;13.606;2023-03-03T08:31:23;100891.25;;;-0.90;62.17